createdAt,value
2022-08-12T00:02:05.166Z,31.00
2022-08-12T00:05:27.976Z,22.00
2022-08-12T00:08:52.182Z,27.00
2022-08-12T00:12:13.961Z,33.00
2022-08-12T00:15:35.539Z,34.50
2022-08-12T00:18:56.806Z,27.40
2022-08-12T00:22:20.196Z,30.25
2022-08-12T00:26:00.421Z,21.40
2022-08-12T00:29:24.378Z,30.00
2022-08-12T00:32:56.592Z,31.40
2022-08-12T00:36:34.883Z,27.60
2022-08-12T00:39:58.606Z,29.40
2022-08-12T00:43:04.738Z,30.20
2022-08-12T00:46:25.330Z,27.20
2022-08-12T00:49:30.928Z,30.00
2022-08-12T00:52:35.783Z,32.00
2022-08-12T00:55:46.072Z,30.00
2022-08-12T00:58:52.833Z,32.00
2022-08-12T01:02:01.114Z,31.60
2022-08-12T01:05:35.424Z,30.00
2022-08-12T01:08:57.406Z,31.50
2022-08-12T01:12:02.132Z,32.00
2022-08-12T01:15:07.833Z,30.75
2022-08-12T01:18:11.361Z,30.00
2022-08-12T01:21:33.523Z,32.00
2022-08-12T01:24:56.134Z,28.00
2022-08-12T01:28:02.278Z,31.00
2022-08-12T01:31:07.519Z,30.00
2022-08-12T01:34:28.466Z,28.60
2022-08-12T01:37:43.657Z,30.00
2022-08-12T01:40:49.959Z,32.00
2022-08-12T01:43:56.837Z,30.00
2022-08-12T01:47:06.963Z,33.00
2022-08-12T01:50:22.308Z,33.00
2022-08-12T01:53:33.190Z,32.00
2022-08-12T01:57:04.564Z,32.00
2022-08-12T02:00:13.787Z,30.80
2022-08-12T02:03:30.062Z,31.80
2022-08-12T02:06:55.213Z,32.80
2022-08-12T02:10:51.082Z,32.40
2022-08-12T02:14:03.475Z,31.00
2022-08-12T02:17:27.555Z,33.00
2022-08-12T02:20:54.499Z,35.00
2022-08-12T02:24:00.472Z,35.00
2022-08-12T02:27:06.785Z,37.00
2022-08-12T02:30:14.680Z,33.00
2022-08-12T02:33:19.293Z,29.60
2022-08-12T02:36:22.873Z,33.00
2022-08-12T02:39:31.022Z,31.00
2022-08-12T02:42:36.402Z,33.00
2022-08-12T02:45:54.687Z,30.60
2022-08-12T02:49:03.337Z,27.80
2022-08-12T02:52:08.166Z,33.00
2022-08-12T02:55:28.367Z,32.00
2022-08-12T02:58:41.427Z,28.60
2022-08-12T03:01:54.671Z,34.00
2022-08-12T03:05:00.285Z,32.00
2022-08-12T03:08:05.634Z,32.00
2022-08-12T03:11:18.101Z,34.00
2022-08-12T03:14:26.350Z,21.75
2022-08-12T03:17:36.223Z,26.50
2022-08-12T03:20:41.050Z,33.20
2022-08-12T03:23:47.329Z,26.00
2022-08-12T03:26:53.433Z,25.00
2022-08-12T03:29:59.210Z,33.00
2022-08-12T03:33:05.279Z,36.00
2022-08-12T03:36:10.860Z,35.40
2022-08-12T03:39:36.365Z,38.80
2022-08-12T03:43:04.954Z,32.60
2022-08-12T03:46:30.730Z,37.40
2022-08-12T03:49:54.968Z,40.00
2022-08-12T03:53:17.828Z,35.00
2022-08-12T03:56:39.000Z,39.40
2022-08-12T03:59:59.770Z,40.00
2022-08-12T04:03:03.074Z,38.50
2022-08-12T04:06:09.956Z,40.40
2022-08-12T04:09:15.814Z,40.40
2022-08-12T04:12:37.308Z,37.00
2022-08-12T04:15:45.507Z,41.40
2022-08-12T04:18:51.482Z,38.20
2022-08-12T04:22:01.383Z,39.60
2022-08-12T04:25:07.376Z,38.60
2022-08-12T04:28:13.545Z,38.25
2022-08-12T04:31:17.485Z,34.80
2022-08-12T04:34:20.784Z,40.60
2022-08-12T04:37:25.508Z,38.00
2022-08-12T04:40:30.948Z,40.00
2022-08-12T04:44:01.293Z,41.00
2022-08-12T04:46:57.769Z,35.00
2022-08-12T04:50:01.920Z,41.75
2022-08-12T04:53:09.021Z,36.40
2022-08-12T04:56:12.748Z,39.00
2022-08-12T04:59:17.228Z,38.60
2022-08-12T05:02:22.938Z,40.60
2022-08-12T05:05:26.517Z,36.40
2022-08-12T05:08:31.303Z,30.60
2022-08-12T05:11:34.682Z,30.00
2022-08-12T05:14:40.035Z,29.00
2022-08-12T05:17:44.061Z,24.00
2022-08-12T05:20:48.436Z,26.00
2022-08-12T05:23:54.953Z,30.60
2022-08-12T05:26:58.390Z,20.40
2022-08-12T05:30:06.504Z,28.00
2022-08-12T05:33:14.154Z,32.75
2022-08-12T05:36:20.019Z,32.00
2022-08-12T05:39:25.068Z,33.00
2022-08-12T05:42:34.421Z,30.00
2022-08-12T05:45:41.639Z,35.25
2022-08-12T05:48:49.510Z,31.00
2022-08-12T05:51:52.802Z,26.40
2022-08-12T05:54:58.124Z,27.00
2022-08-12T05:58:02.264Z,27.40
2022-08-12T06:02:10.591Z,29.25
2022-08-12T06:04:29.579Z,26.25
2022-08-12T06:07:59.848Z,21.20
2022-08-12T06:10:59.405Z,25.00
2022-08-12T06:14:02.802Z,29.60
2022-08-12T06:17:15.460Z,29.00
2022-08-12T06:20:27.548Z,22.20
2022-08-12T06:23:33.076Z,22.00
2022-08-12T06:26:37.723Z,16.20
2022-08-12T06:30:09.806Z,19.00
2022-08-12T06:33:24.922Z,20.00
2022-08-12T06:36:33.352Z,24.50
2022-08-12T06:39:37.312Z,28.00
2022-08-12T06:42:53.042Z,25.80
2022-08-12T06:45:58.205Z,21.00
2022-08-12T06:49:01.484Z,24.00
2022-08-12T06:52:06.575Z,19.50
2022-08-12T06:55:12.052Z,20.00
2022-08-12T06:58:16.794Z,24.00
2022-08-12T07:01:20.243Z,19.50
2022-08-12T07:04:36.310Z,21.00
2022-08-12T07:07:41.618Z,23.00
2022-08-12T07:10:47.599Z,19.00
2022-08-12T07:14:12.631Z,20.00
2022-08-12T07:17:17.341Z,21.00
2022-08-12T07:20:50.200Z,21.00
2022-08-12T07:23:45.328Z,23.50
2022-08-12T07:26:48.911Z,32.20
2022-08-12T07:30:03.906Z,23.00
2022-08-12T07:33:10.317Z,22.50
2022-08-12T07:36:15.339Z,27.00
2022-08-12T07:39:18.728Z,28.80
2022-08-12T07:42:21.939Z,18.60
2022-08-12T07:45:26.687Z,21.50
2022-08-12T07:48:37.440Z,22.40
2022-08-12T07:51:42.114Z,22.60
2022-08-12T07:54:45.339Z,22.00
2022-08-12T07:57:56.059Z,22.00
2022-08-12T08:01:02.479Z,23.00
2022-08-12T08:04:24.025Z,21.00
2022-08-12T08:07:30.774Z,18.20
2022-08-12T08:10:34.556Z,16.75
2022-08-12T08:13:39.062Z,17.60
2022-08-12T08:16:44.074Z,18.00
2022-08-12T08:20:02.615Z,17.60
2022-08-12T08:23:10.492Z,20.00
2022-08-12T08:26:16.139Z,23.00
2022-08-12T08:29:22.204Z,18.00
2022-08-12T08:32:26.816Z,19.20
2022-08-12T08:35:47.085Z,18.50
2022-08-12T08:38:53.258Z,18.50
2022-08-12T08:42:20.516Z,18.00
2022-08-12T08:45:24.099Z,15.00
2022-08-12T08:48:33.210Z,18.50
2022-08-12T08:51:37.150Z,17.40
2022-08-12T08:54:40.678Z,18.00
2022-08-12T08:57:47.953Z,14.20
2022-08-12T09:00:51.788Z,15.00
2022-08-12T09:05:07.917Z,17.80
2022-08-12T09:07:51.683Z,17.00
2022-08-12T09:10:45.302Z,17.00
2022-08-12T09:14:10.793Z,19.00
2022-08-12T09:17:14.019Z,18.00
2022-08-12T09:20:29.400Z,17.00
2022-08-12T09:23:59.956Z,20.00
2022-08-12T09:26:58.989Z,16.00
2022-08-12T09:30:10.661Z,21.00
2022-08-12T09:33:19.366Z,17.00
2022-08-12T09:36:58.364Z,22.33
2022-08-12T09:40:57.632Z,17.40
2022-08-12T09:43:53.585Z,15.20
2022-08-12T09:47:03.838Z,18.00
2022-08-12T09:50:20.604Z,22.40
2022-08-12T09:53:35.955Z,12.25
2022-08-12T09:56:59.208Z,17.40
2022-08-12T10:00:13.254Z,15.50
2022-08-12T10:03:31.738Z,9.00
2022-08-12T10:06:53.794Z,16.00
2022-08-12T10:10:01.130Z,16.00
2022-08-12T10:13:35.282Z,15.60
2022-08-12T10:16:45.418Z,13.50
2022-08-12T10:19:51.762Z,15.00
2022-08-12T10:23:01.904Z,13.75
2022-08-12T10:26:37.426Z,15.25
2022-08-12T10:30:03.196Z,15.00
2022-08-12T10:33:19.295Z,13.60
2022-08-12T10:36:36.425Z,15.20
2022-08-12T10:40:00.801Z,16.00
2022-08-12T10:43:24.928Z,14.00
2022-08-12T10:46:30.867Z,13.00
2022-08-12T10:50:03.660Z,16.00
2022-08-12T10:53:01.077Z,15.00
2022-08-12T10:56:05.310Z,14.40
2022-08-12T10:59:11.069Z,13.80
2022-08-12T11:04:23.464Z,15.80
2022-08-12T11:07:05.540Z,15.00
2022-08-12T11:09:10.363Z,15.75
2022-08-12T11:12:55.548Z,17.00
2022-08-12T11:16:03.207Z,16.00
2022-08-12T11:19:05.628Z,13.40
2022-08-12T11:22:10.156Z,13.20
2022-08-12T11:25:14.907Z,11.60
2022-08-12T11:28:20.635Z,13.60
2022-08-12T11:31:56.105Z,13.00
2022-08-12T11:35:01.667Z,12.80
2022-08-12T11:38:05.423Z,15.00
2022-08-12T11:41:12.767Z,16.75
2022-08-12T11:44:36.812Z,12.67
2022-08-12T11:47:41.988Z,13.00
2022-08-12T11:50:45.281Z,14.00
2022-08-12T11:53:57.059Z,11.60
2022-08-12T11:58:07.411Z,15.00
2022-08-12T12:03:52.226Z,15.25
2022-08-12T12:07:07.257Z,15.00
2022-08-12T12:10:16.593Z,16.00
2022-08-12T12:13:23.287Z,19.00
2022-08-12T12:16:50.186Z,17.00
2022-08-12T12:19:55.817Z,17.00
2022-08-12T12:22:59.043Z,16.00
2022-08-12T12:26:07.081Z,15.00
2022-08-12T12:30:14.053Z,15.60
2022-08-12T12:32:35.048Z,15.00
2022-08-12T12:36:17.589Z,16.00
2022-08-12T12:39:06.491Z,18.00
2022-08-12T12:42:55.871Z,16.60
2022-08-12T12:45:39.346Z,16.25
2022-08-12T12:48:47.475Z,18.00
2022-08-12T12:52:18.520Z,14.00
2022-08-12T12:55:16.415Z,15.00
2022-08-12T12:58:20.883Z,16.00
2022-08-12T13:01:31.851Z,13.75
2022-08-12T13:04:37.526Z,11.75
2022-08-12T13:07:54.725Z,13.50
2022-08-12T13:11:06.364Z,14.00
2022-08-12T13:14:27.905Z,13.00
2022-08-12T13:18:02.436Z,15.00
2022-08-12T13:20:59.385Z,12.20
2022-08-12T13:24:10.481Z,13.00
2022-08-12T13:27:15.512Z,12.00
2022-08-12T13:30:23.718Z,10.20
2022-08-12T13:34:29.627Z,11.00
2022-08-12T13:36:57.550Z,12.40
2022-08-12T13:40:02.333Z,12.40
2022-08-12T13:43:06.435Z,12.00
2022-08-12T13:46:12.444Z,13.50
2022-08-12T13:49:17.477Z,13.80
2022-08-12T13:52:23.835Z,12.20
2022-08-12T13:55:30.915Z,11.50
2022-08-12T13:58:37.476Z,12.40
2022-08-12T14:01:41.441Z,8.40
2022-08-12T14:04:45.642Z,15.00
2022-08-12T14:08:01.901Z,11.00
2022-08-12T14:11:12.457Z,12.00
2022-08-12T14:14:16.472Z,15.00
2022-08-12T14:17:22.633Z,10.00
2022-08-12T14:20:26.656Z,11.40
2022-08-12T14:24:05.478Z,11.20
2022-08-12T14:26:57.227Z,9.20
2022-08-12T14:30:15.215Z,15.00
2022-08-12T14:33:21.866Z,16.00
2022-08-12T14:36:26.537Z,11.20
2022-08-12T14:39:29.812Z,14.00
2022-08-12T14:42:35.572Z,12.40
2022-08-12T14:45:47.014Z,12.75
2022-08-12T14:48:54.770Z,11.00
2022-08-12T14:52:55.823Z,11.80
2022-08-12T14:59:01.064Z,13.00
2022-08-12T15:02:25.767Z,14.60
2022-08-12T15:06:05.794Z,13.00
2022-08-12T15:08:54.524Z,14.60
2022-08-12T15:12:03.461Z,16.00
2022-08-12T15:15:10.487Z,11.33
2022-08-12T15:18:21.099Z,16.40
2022-08-12T15:21:25.530Z,15.00
2022-08-12T15:24:49.774Z,14.00
2022-08-12T15:28:04.090Z,12.60
2022-08-12T15:31:27.407Z,15.00
2022-08-12T15:34:33.461Z,15.00
2022-08-12T15:38:11.256Z,15.00
2022-08-12T15:41:00.873Z,17.60
2022-08-12T15:44:36.753Z,17.00
2022-08-12T15:47:33.587Z,16.00
2022-08-12T15:50:53.077Z,17.00
2022-08-12T15:54:33.990Z,15.00
2022-08-12T15:57:33.297Z,13.00
2022-08-12T16:00:38.884Z,12.33
2022-08-12T16:03:46.317Z,14.40
2022-08-12T16:07:08.843Z,14.00
2022-08-12T16:10:14.077Z,16.75
2022-08-12T16:13:32.486Z,16.20
2022-08-12T16:16:37.482Z,17.00
2022-08-12T16:20:03.601Z,13.00
2022-08-12T16:23:36.140Z,18.25
2022-08-12T16:26:36.790Z,16.00
2022-08-12T16:29:53.037Z,18.00
2022-08-12T16:32:59.380Z,16.60
2022-08-12T16:36:11.443Z,18.00
2022-08-12T16:39:14.820Z,20.50
2022-08-12T16:42:20.609Z,16.80
2022-08-12T16:46:04.076Z,18.40
2022-08-12T16:48:48.008Z,17.25
2022-08-12T16:51:54.763Z,18.40
2022-08-12T16:54:58.245Z,18.50
2022-08-12T16:58:01.836Z,17.00
2022-08-12T17:01:06.537Z,16.00
2022-08-12T17:04:09.933Z,28.40
2022-08-12T17:07:21.543Z,18.00
2022-08-12T17:10:36.110Z,22.00
2022-08-12T17:13:53.000Z,19.00
2022-08-12T17:16:57.330Z,19.00
2022-08-12T17:20:28.941Z,17.20
2022-08-12T17:23:47.962Z,18.60
2022-08-12T17:26:54.187Z,13.80
2022-08-12T17:30:02.947Z,18.20
2022-08-12T17:33:08.504Z,18.25
2022-08-12T17:36:11.812Z,14.20
2022-08-12T17:39:16.676Z,20.00
2022-08-12T17:42:34.773Z,14.00
2022-08-12T17:45:42.347Z,19.00
2022-08-12T17:48:55.051Z,18.50
2022-08-12T17:52:02.286Z,18.00
2022-08-12T17:55:40.602Z,16.60
2022-08-12T17:58:38.047Z,17.25
2022-08-12T18:01:45.302Z,17.60
2022-08-12T18:05:05.111Z,19.60
2022-08-12T18:08:11.859Z,19.00
2022-08-12T18:12:06.541Z,19.00
2022-08-12T18:14:58.839Z,18.00
2022-08-12T18:18:03.078Z,16.40
2022-08-12T18:21:08.798Z,15.00
2022-08-12T18:24:21.762Z,18.40
2022-08-12T18:27:34.481Z,16.80
2022-08-12T18:30:52.901Z,15.00
2022-08-12T18:34:00.922Z,18.00
2022-08-12T18:37:26.535Z,17.00
2022-08-12T18:40:48.085Z,26.00
2022-08-12T18:44:00.746Z,16.00
2022-08-12T18:47:09.708Z,16.00
2022-08-12T18:50:16.782Z,16.40
2022-08-12T18:54:05.570Z,16.80
2022-08-12T18:56:46.498Z,16.25
2022-08-12T19:00:00.731Z,16.25
2022-08-12T19:03:09.238Z,15.00
2022-08-12T19:06:38.273Z,15.00
2022-08-12T19:09:58.710Z,15.00
2022-08-12T19:13:24.565Z,15.00
2022-08-12T19:16:30.634Z,18.00
2022-08-12T19:19:41.282Z,16.40
2022-08-12T19:22:59.795Z,18.00
2022-08-12T19:26:10.717Z,14.25
2022-08-12T19:29:18.263Z,22.20
2022-08-12T19:32:29.624Z,18.00
2022-08-12T19:36:07.920Z,18.00
2022-08-12T19:38:58.653Z,20.60
2022-08-12T19:42:02.741Z,21.20
2022-08-12T19:45:12.177Z,21.00
2022-08-12T19:48:21.930Z,21.80
2022-08-12T19:51:33.343Z,21.00
2022-08-12T19:54:43.941Z,21.00
2022-08-12T19:58:01.649Z,21.40
2022-08-12T20:01:11.733Z,19.20
2022-08-12T20:04:16.486Z,20.20
2022-08-12T20:07:23.558Z,21.00
2022-08-12T20:10:35.476Z,24.50
2022-08-12T20:13:42.193Z,30.00
2022-08-12T20:16:52.902Z,33.40
2022-08-12T20:20:17.767Z,24.40
2022-08-12T20:23:24.434Z,23.00
2022-08-12T20:26:48.259Z,27.00
2022-08-12T20:29:54.373Z,30.00
2022-08-12T20:33:00.726Z,22.00
2022-08-12T20:36:40.191Z,21.80
2022-08-12T20:39:52.127Z,27.60
2022-08-12T20:42:53.730Z,29.00
2022-08-12T20:45:58.239Z,29.80
2022-08-12T20:49:14.315Z,21.80
2022-08-12T20:52:24.373Z,22.60
2022-08-12T20:55:43.229Z,22.00
2022-08-12T20:58:52.004Z,21.40
2022-08-12T21:01:55.346Z,21.20
2022-08-12T21:05:20.264Z,29.00
2022-08-12T21:08:27.373Z,17.00
2022-08-12T21:11:32.024Z,18.20
2022-08-12T21:14:39.530Z,23.80
2022-08-12T21:18:10.892Z,18.00
2022-08-12T21:21:46.978Z,26.00
2022-08-12T21:24:54.366Z,24.60
2022-08-12T21:28:01.078Z,20.20
2022-08-12T21:32:35.270Z,24.40
2022-08-12T21:34:30.974Z,26.00
2022-08-12T21:37:37.456Z,20.40
2022-08-12T21:40:51.528Z,24.00
2022-08-12T21:44:01.665Z,24.50
2022-08-12T21:47:21.332Z,20.40
2022-08-12T21:50:29.149Z,23.00
2022-08-12T21:54:07.801Z,22.60
2022-08-12T21:56:58.535Z,23.00
2022-08-12T22:00:02.152Z,23.00
2022-08-12T22:04:03.168Z,21.00
2022-08-12T22:06:53.650Z,26.40
2022-08-12T22:09:57.438Z,24.75
2022-08-12T22:13:02.915Z,26.00
2022-08-12T22:16:06.615Z,24.00
2022-08-12T22:19:09.839Z,24.00
2022-08-12T22:22:13.887Z,20.60
2022-08-12T22:25:17.155Z,21.00
2022-08-12T22:28:42.522Z,26.00
2022-08-12T22:31:45.899Z,21.60
2022-08-12T22:35:09.264Z,20.80
2022-08-12T22:38:17.103Z,21.50
2022-08-12T22:41:42.407Z,25.00
2022-08-12T22:45:04.852Z,20.50
2022-08-12T22:48:08.718Z,22.25
2022-08-12T22:51:14.505Z,25.00
2022-08-12T22:54:35.174Z,22.60
2022-08-12T22:57:53.751Z,23.80
2022-08-12T23:01:01.998Z,22.50
2022-08-12T23:04:07.921Z,28.00
2022-08-12T23:07:13.618Z,22.75
2022-08-12T23:10:17.716Z,23.00
2022-08-12T23:13:43.590Z,25.20
2022-08-12T23:16:52.358Z,25.50
2022-08-12T23:19:56.309Z,24.00
2022-08-12T23:23:09.239Z,25.00
2022-08-12T23:26:12.958Z,26.00
2022-08-12T23:29:29.395Z,20.20
2022-08-12T23:32:36.811Z,21.00
2022-08-12T23:35:45.505Z,26.00
2022-08-12T23:38:58.573Z,22.00
2022-08-12T23:42:16.395Z,22.60
2022-08-12T23:45:31.408Z,22.50
2022-08-12T23:48:39.998Z,25.00
2022-08-12T23:51:44.431Z,25.20
2022-08-12T23:54:58.179Z,25.40
2022-08-12T23:58:21.412Z,30.00
